createdAt,value
2022-10-25T00:01:30.285Z,2.90
2022-10-25T00:03:57.012Z,3.58
2022-10-25T00:06:23.875Z,3.05
2022-10-25T00:08:50.548Z,3.20
2022-10-25T00:11:22.571Z,3.47
2022-10-25T00:13:50.864Z,3.75
2022-10-25T00:16:20.771Z,3.58
2022-10-25T00:18:47.381Z,3.67
2022-10-25T00:21:14.059Z,4.40
2022-10-25T00:23:40.731Z,4.57
2022-10-25T00:26:09.468Z,3.88
2022-10-25T00:28:36.203Z,4.78
2022-10-25T00:31:08.123Z,4.32
2022-10-25T00:33:36.270Z,3.75
2022-10-25T00:36:17.672Z,5.03
2022-10-25T00:38:46.032Z,4.57
2022-10-25T00:41:14.758Z,4.75
2022-10-25T00:43:47.865Z,5.07
2022-10-25T00:46:20.735Z,5.15
2022-10-25T00:48:53.795Z,4.38
2022-10-25T00:51:24.214Z,5.78
2022-10-25T00:53:51.317Z,5.63
2022-10-25T00:56:22.037Z,5.18
2022-10-25T00:58:53.459Z,5.28
2022-10-25T01:01:20.258Z,5.60
2022-10-25T01:03:51.069Z,5.68
2022-10-25T01:06:23.369Z,5.75
2022-10-25T01:08:52.519Z,4.82
2022-10-25T01:11:19.969Z,5.53
2022-10-25T01:13:47.970Z,5.82
2022-10-25T01:16:33.306Z,5.95
2022-10-25T01:19:20.654Z,4.85
2022-10-25T01:22:03.888Z,4.70
2022-10-25T01:24:59.507Z,4.40
2022-10-25T01:27:34.984Z,4.82
2022-10-25T01:30:07.353Z,3.72
2022-10-25T01:32:52.445Z,3.80
2022-10-25T01:35:32.073Z,4.18
2022-10-25T01:38:26.155Z,3.50
2022-10-25T01:40:59.863Z,4.28
2022-10-25T01:43:51.001Z,3.38
2022-10-25T01:46:28.146Z,3.53
2022-10-25T01:49:14.307Z,3.35
2022-10-25T01:51:40.926Z,3.45
2022-10-25T01:54:23.294Z,3.67
2022-10-25T01:56:55.821Z,3.22
2022-10-25T01:59:58.421Z,3.50
2022-10-25T02:02:48.595Z,3.58
2022-10-25T02:05:22.319Z,3.20
2022-10-25T02:08:05.868Z,3.25
2022-10-25T02:10:42.792Z,3.92
2022-10-25T02:13:19.050Z,3.25
2022-10-25T02:16:11.709Z,4.10
2022-10-25T02:18:42.367Z,3.72
2022-10-25T02:21:12.448Z,3.63
2022-10-25T02:23:40.001Z,3.90
2022-10-25T02:26:09.355Z,3.65
2022-10-25T02:28:39.943Z,4.15
2022-10-25T02:31:14.640Z,4.28
2022-10-25T02:33:44.980Z,4.05
2022-10-25T02:36:22.075Z,3.53
2022-10-25T02:38:50.402Z,4.40
2022-10-25T02:41:17.486Z,3.97
2022-10-25T02:43:44.261Z,4.18
2022-10-25T02:46:13.370Z,4.40
2022-10-25T02:48:40.504Z,3.97
2022-10-25T02:51:08.478Z,3.92
2022-10-25T02:53:35.919Z,4.20
2022-10-25T02:56:07.160Z,4.05
2022-10-25T02:58:38.157Z,4.05
2022-10-25T03:01:05.833Z,3.50
2022-10-25T03:03:33.376Z,3.50
2022-10-25T03:06:00.294Z,2.95
2022-10-25T03:10:55.717Z,3.67
2022-10-25T03:13:22.881Z,3.70
2022-10-25T03:15:49.461Z,3.05
2022-10-25T03:18:16.305Z,3.03
2022-10-25T03:20:43.856Z,3.15
2022-10-25T03:23:11.213Z,3.05
2022-10-25T03:25:38.108Z,3.83
2022-10-25T03:28:05.068Z,3.35
2022-10-25T03:30:32.075Z,3.67
2022-10-25T03:32:59.135Z,2.90
2022-10-25T03:35:25.863Z,2.85
2022-10-25T03:37:53.284Z,2.85
2022-10-25T03:40:21.090Z,2.83
2022-10-25T03:42:47.653Z,3.22
2022-10-25T03:45:14.272Z,2.75
2022-10-25T03:47:40.872Z,2.60
2022-10-25T03:50:08.287Z,3.97
2022-10-25T03:52:35.000Z,3.20
2022-10-25T03:55:01.786Z,3.63
2022-10-25T03:57:28.409Z,3.63
2022-10-25T03:59:54.964Z,3.35
2022-10-25T04:02:21.536Z,3.95
2022-10-25T04:04:48.120Z,4.13
2022-10-25T04:07:14.861Z,4.35
2022-10-25T04:09:41.487Z,4.15
2022-10-25T04:12:08.107Z,4.22
2022-10-25T04:14:34.819Z,5.15
2022-10-25T04:17:01.370Z,4.50
2022-10-25T04:19:28.069Z,5.00
2022-10-25T04:21:54.759Z,4.93
2022-10-25T04:24:22.637Z,4.13
2022-10-25T04:26:49.283Z,4.43
2022-10-25T04:29:17.305Z,3.75
2022-10-25T04:31:43.925Z,3.88
2022-10-25T04:34:10.587Z,4.15
2022-10-25T04:36:38.939Z,4.03
2022-10-25T04:39:06.218Z,3.92
2022-10-25T04:41:32.796Z,3.70
2022-10-25T04:43:59.359Z,3.80
2022-10-25T04:46:25.979Z,3.92
2022-10-25T04:48:52.578Z,3.60
2022-10-25T04:51:19.159Z,3.80
2022-10-25T04:53:45.787Z,3.58
2022-10-25T04:56:14.360Z,3.67
2022-10-25T04:58:41.273Z,4.57
2022-10-25T05:01:11.058Z,3.88
2022-10-25T05:03:38.215Z,4.03
2022-10-25T05:06:16.226Z,3.97
2022-10-25T05:08:48.285Z,3.97
2022-10-25T05:11:17.141Z,4.45
2022-10-25T05:13:45.034Z,4.68
2022-10-25T05:16:24.492Z,4.10
2022-10-25T05:18:54.446Z,4.85
2022-10-25T05:21:22.471Z,4.88
2022-10-25T05:23:49.185Z,4.70
2022-10-25T05:26:18.971Z,5.15
2022-10-25T05:28:47.524Z,5.32
2022-10-25T05:31:17.215Z,5.55
2022-10-25T05:33:44.992Z,5.43
2022-10-25T05:36:12.931Z,5.43
2022-10-25T05:38:39.936Z,5.75
2022-10-25T05:41:08.223Z,5.43
2022-10-25T05:43:35.189Z,6.57
2022-10-25T05:46:07.759Z,6.53
2022-10-25T05:48:35.888Z,6.53
2022-10-25T05:51:28.955Z,6.18
2022-10-25T05:54:00.999Z,6.85
2022-10-25T05:56:29.339Z,6.43
2022-10-25T05:58:58.946Z,5.80
2022-10-25T06:01:26.801Z,6.07
2022-10-25T06:03:55.343Z,6.38
2022-10-25T06:06:22.674Z,6.90
2022-10-25T06:08:49.449Z,6.68
2022-10-25T06:11:19.254Z,6.63
2022-10-25T06:13:46.353Z,5.95
2022-10-25T06:16:17.913Z,5.72
2022-10-25T06:18:44.831Z,6.50
2022-10-25T06:21:13.970Z,6.00
2022-10-25T06:23:41.571Z,5.53
2022-10-25T06:26:10.960Z,6.68
2022-10-25T06:28:38.123Z,5.72
2022-10-25T06:31:06.181Z,6.57
2022-10-25T06:33:33.164Z,5.43
2022-10-25T06:36:01.748Z,4.85
2022-10-25T06:38:29.564Z,4.88
2022-10-25T06:41:00.105Z,4.95
2022-10-25T06:43:27.135Z,4.75
2022-10-25T06:45:54.268Z,4.75
2022-10-25T06:48:21.232Z,4.97
2022-10-25T06:50:51.341Z,5.43
2022-10-25T06:53:18.836Z,5.80
2022-10-25T06:55:47.064Z,5.15
2022-10-25T06:58:13.674Z,4.70
2022-10-25T07:00:40.236Z,5.65
2022-10-25T07:03:06.880Z,4.15
2022-10-25T07:05:33.460Z,5.28
2022-10-25T07:08:00.019Z,5.25
2022-10-25T07:10:26.599Z,5.10
2022-10-25T07:12:53.168Z,5.43
2022-10-25T07:17:54.141Z,5.20
2022-10-25T07:20:20.712Z,5.72
2022-10-25T07:22:49.235Z,5.80
2022-10-25T07:25:15.856Z,5.90
2022-10-25T07:27:42.415Z,5.60
2022-10-25T07:30:09.559Z,4.93
2022-10-25T07:32:41.419Z,5.13
2022-10-25T07:35:09.204Z,5.80
2022-10-25T07:37:35.761Z,5.50
2022-10-25T07:40:02.347Z,5.78
2022-10-25T07:42:28.901Z,5.75
2022-10-25T07:44:55.458Z,5.20
2022-10-25T07:47:22.178Z,5.00
2022-10-25T07:49:48.765Z,5.50
2022-10-25T07:52:16.385Z,6.45
2022-10-25T07:57:11.220Z,4.78
2022-10-25T07:59:37.777Z,5.63
2022-10-25T08:02:04.359Z,5.95
2022-10-25T08:04:32.879Z,6.10
2022-10-25T08:07:01.291Z,6.93
2022-10-25T08:09:37.806Z,6.22
2022-10-25T08:12:04.832Z,7.05
2022-10-25T08:14:32.956Z,6.47
2022-10-25T08:17:01.683Z,6.28
2022-10-25T08:19:28.257Z,5.75
2022-10-25T08:21:54.830Z,7.05
2022-10-25T08:24:21.427Z,6.80
2022-10-25T08:26:47.992Z,6.85
2022-10-25T08:29:14.900Z,6.57
2022-10-25T08:31:41.513Z,6.20
2022-10-25T08:34:08.219Z,6.43
2022-10-25T08:36:34.991Z,5.88
2022-10-25T08:39:01.596Z,6.25
2022-10-25T08:41:53.351Z,6.72
2022-10-25T08:44:44.224Z,6.50
2022-10-25T08:47:34.600Z,6.22
2022-10-25T08:50:18.965Z,5.75
2022-10-25T08:52:53.618Z,6.13
2022-10-25T08:55:27.783Z,6.32
2022-10-25T08:57:55.987Z,5.78
2022-10-25T09:00:24.219Z,5.50
2022-10-25T09:02:57.928Z,5.93
2022-10-25T09:05:50.981Z,6.63
2022-10-25T09:08:54.227Z,5.65
2022-10-25T09:11:36.716Z,5.68
2022-10-25T09:14:12.304Z,5.22
2022-10-25T09:17:06.301Z,5.10
2022-10-25T09:19:35.921Z,5.13
2022-10-25T09:22:05.202Z,4.82
2022-10-25T09:25:00.191Z,5.05
2022-10-25T09:27:32.936Z,4.72
2022-10-25T09:30:07.725Z,4.10
2022-10-25T09:32:42.654Z,5.43
2022-10-25T09:35:20.735Z,4.30
2022-10-25T09:38:08.357Z,4.63
2022-10-25T09:40:50.705Z,4.20
2022-10-25T09:43:23.063Z,4.68
2022-10-25T09:45:54.214Z,5.57
2022-10-25T09:48:48.589Z,5.00
2022-10-25T09:51:23.658Z,5.07
2022-10-25T09:53:51.617Z,4.47
2022-10-25T09:56:18.227Z,5.38
2022-10-25T09:58:47.100Z,4.90
2022-10-25T10:01:28.289Z,4.47
2022-10-25T10:04:04.320Z,3.85
2022-10-25T10:06:37.533Z,4.10
2022-10-25T10:09:07.844Z,4.05
2022-10-25T10:11:36.331Z,4.20
2022-10-25T10:14:26.039Z,4.88
2022-10-25T10:16:56.701Z,4.90
2022-10-25T10:19:29.911Z,4.30
2022-10-25T10:22:08.599Z,4.45
2022-10-25T10:24:41.871Z,3.80
2022-10-25T10:27:20.693Z,4.10
2022-10-25T10:30:06.999Z,4.35
2022-10-25T10:32:36.105Z,5.00
2022-10-25T10:35:22.253Z,4.78
2022-10-25T10:37:49.285Z,4.75
2022-10-25T10:40:16.052Z,5.28
2022-10-25T10:42:42.878Z,6.07
2022-10-25T10:45:15.303Z,5.93
2022-10-25T10:47:51.027Z,5.32
2022-10-25T10:50:20.381Z,5.70
2022-10-25T10:52:48.849Z,5.55
2022-10-25T10:55:22.545Z,5.72
2022-10-25T10:57:51.833Z,6.63
2022-10-25T11:00:28.752Z,5.85
2022-10-25T11:05:34.860Z,5.57
2022-10-25T11:08:08.442Z,5.40
2022-10-25T11:10:39.965Z,5.50
2022-10-25T11:13:12.655Z,5.28
2022-10-25T11:15:54.294Z,5.32
2022-10-25T11:18:44.697Z,4.85
2022-10-25T11:21:17.094Z,5.15
2022-10-25T11:24:07.999Z,5.18
2022-10-25T11:26:53.316Z,5.63
2022-10-25T11:29:49.224Z,5.53
2022-10-25T11:32:21.613Z,4.65
2022-10-25T11:35:11.032Z,4.15
2022-10-25T11:37:47.428Z,4.32
2022-10-25T11:40:22.407Z,4.32
2022-10-25T11:43:08.075Z,4.22
2022-10-25T11:45:45.406Z,3.60
2022-10-25T11:48:41.611Z,3.20
2022-10-25T11:51:43.498Z,3.55
2022-10-25T11:54:24.592Z,2.88
2022-10-25T11:57:22.208Z,3.08
2022-10-25T12:00:14.696Z,3.75
2022-10-25T12:03:04.483Z,3.58
2022-10-25T12:05:49.836Z,3.03
2022-10-25T12:08:19.201Z,3.05
2022-10-25T12:10:54.505Z,2.83
2022-10-25T12:13:27.253Z,2.65
2022-10-25T12:15:56.360Z,2.90
2022-10-25T12:18:33.516Z,3.15
2022-10-25T12:21:01.615Z,3.10
2022-10-25T12:23:31.603Z,3.38
2022-10-25T12:26:06.796Z,3.60
2022-10-25T12:28:51.941Z,3.85
2022-10-25T12:31:29.288Z,4.30
2022-10-25T12:34:14.205Z,4.30
2022-10-25T12:36:47.533Z,4.78
2022-10-25T12:39:19.865Z,4.43
2022-10-25T12:41:52.056Z,4.13
2022-10-25T12:44:42.273Z,4.75
2022-10-25T12:47:19.683Z,3.83
2022-10-25T12:49:52.180Z,4.57
2022-10-25T12:52:33.780Z,4.72
2022-10-25T12:55:08.780Z,4.72
2022-10-25T12:58:12.297Z,4.03
2022-10-25T13:00:43.885Z,3.53
2022-10-25T13:06:26.054Z,3.72
2022-10-25T13:08:54.861Z,3.92
2022-10-25T13:11:32.809Z,4.35
2022-10-25T13:14:00.821Z,3.72
2022-10-25T13:16:32.906Z,3.50
2022-10-25T13:19:42.753Z,3.40
2022-10-25T13:22:49.720Z,3.33
2022-10-25T13:25:37.991Z,3.65
2022-10-25T13:28:16.608Z,3.67
2022-10-25T13:30:44.148Z,3.55
2022-10-25T13:33:27.117Z,4.13
2022-10-25T13:35:53.708Z,3.63
2022-10-25T13:38:23.023Z,4.95
2022-10-25T13:41:16.255Z,5.57
2022-10-25T13:44:04.160Z,5.22
2022-10-25T13:46:34.992Z,4.25
2022-10-25T13:49:05.438Z,4.30
2022-10-25T13:51:32.872Z,3.70
2022-10-25T13:54:06.069Z,3.53
2022-10-25T13:56:36.682Z,3.60
2022-10-25T13:59:26.468Z,3.28
2022-10-25T14:01:53.660Z,3.78
2022-10-25T14:04:21.747Z,4.03
2022-10-25T14:06:48.485Z,3.55
2022-10-25T14:09:36.234Z,3.22
2022-10-25T14:12:03.471Z,3.45
2022-10-25T14:14:47.395Z,3.58
2022-10-25T14:17:29.327Z,2.80
2022-10-25T14:20:01.880Z,3.13
2022-10-25T14:22:57.750Z,2.55
2022-10-25T14:25:39.527Z,2.50
2022-10-25T14:28:16.533Z,3.05
2022-10-25T14:30:44.898Z,2.45
2022-10-25T14:33:31.600Z,2.50
2022-10-25T14:36:11.326Z,2.55
2022-10-25T14:38:54.304Z,2.50
2022-10-25T14:41:29.457Z,2.60
2022-10-25T14:43:56.771Z,3.05
2022-10-25T14:46:25.593Z,2.80
2022-10-25T14:49:00.010Z,2.88
2022-10-25T14:51:31.280Z,3.83
2022-10-25T14:54:14.612Z,3.42
2022-10-25T14:56:53.142Z,2.97
2022-10-25T14:59:44.803Z,2.88
2022-10-25T15:04:45.057Z,3.80
2022-10-25T15:07:42.469Z,3.78
2022-10-25T15:10:42.455Z,2.88
2022-10-25T15:13:22.635Z,2.72
2022-10-25T15:15:51.123Z,3.00
2022-10-25T15:18:34.139Z,2.58
2022-10-25T15:21:07.971Z,2.78
2022-10-25T15:23:35.120Z,3.00
2022-10-25T15:26:22.002Z,3.10
2022-10-25T15:28:54.934Z,4.10
2022-10-25T15:31:25.059Z,4.10
2022-10-25T15:34:05.426Z,4.43
2022-10-25T15:36:33.845Z,4.57
2022-10-25T15:39:09.276Z,5.30
2022-10-25T15:41:38.162Z,5.30
2022-10-25T15:44:04.757Z,5.00
2022-10-25T15:46:34.146Z,4.78
2022-10-25T15:49:04.051Z,5.50
2022-10-25T15:51:33.536Z,4.78
2022-10-25T15:54:00.106Z,4.97
2022-10-25T15:56:26.931Z,5.72
2022-10-25T15:58:53.565Z,5.45
2022-10-25T16:01:21.060Z,5.50
2022-10-25T16:03:47.705Z,5.20
2022-10-25T16:06:14.959Z,5.60
2022-10-25T16:08:42.065Z,5.07
2022-10-25T16:11:16.389Z,5.32
2022-10-25T16:13:45.900Z,6.05
2022-10-25T16:16:39.461Z,5.78
2022-10-25T16:19:09.723Z,5.22
2022-10-25T16:21:36.289Z,5.05
2022-10-25T16:24:02.914Z,5.35
2022-10-25T16:26:43.793Z,5.65
2022-10-25T16:29:19.058Z,5.87
2022-10-25T16:31:45.755Z,5.78
2022-10-25T16:34:12.718Z,6.50
2022-10-25T16:36:39.311Z,7.25
2022-10-25T16:39:07.467Z,8.85
2022-10-25T16:41:36.795Z,11.88
2022-10-25T16:44:03.456Z,13.05
2022-10-25T16:46:30.134Z,11.25
2022-10-25T16:48:59.508Z,9.60
2022-10-25T16:51:28.734Z,7.57
2022-10-25T16:53:55.400Z,5.97
2022-10-25T16:56:22.003Z,5.50
2022-10-25T16:58:48.544Z,6.13
2022-10-25T17:01:26.137Z,8.82
2022-10-25T17:03:53.919Z,8.80
2022-10-25T17:06:41.311Z,11.95
2022-10-25T17:09:07.999Z,8.93
2022-10-25T17:11:34.621Z,6.80
2022-10-25T17:14:01.187Z,8.25
2022-10-25T17:16:27.844Z,5.88
2022-10-25T17:18:54.383Z,6.82
2022-10-25T17:21:21.061Z,5.40
2022-10-25T17:23:47.628Z,5.97
2022-10-25T17:26:14.499Z,5.97
2022-10-25T17:28:43.960Z,6.03
2022-10-25T17:31:13.001Z,5.32
2022-10-25T17:33:40.638Z,5.13
2022-10-25T17:36:09.556Z,5.63
2022-10-25T17:38:36.176Z,5.68
2022-10-25T17:41:02.860Z,6.10
2022-10-25T17:43:29.558Z,4.85
2022-10-25T17:46:04.236Z,5.93
2022-10-25T17:48:31.694Z,5.43
2022-10-25T17:51:09.235Z,5.30
2022-10-25T17:53:36.202Z,5.43
2022-10-25T17:56:16.475Z,5.53
2022-10-25T17:58:45.090Z,5.57
2022-10-25T18:01:13.961Z,5.50
2022-10-25T18:03:40.669Z,5.95
2022-10-25T18:06:12.984Z,6.05
2022-10-25T18:08:40.016Z,6.45
2022-10-25T18:11:10.193Z,6.00
2022-10-25T18:13:38.271Z,5.95
2022-10-25T18:18:38.364Z,6.53
2022-10-25T18:21:09.934Z,6.53
2022-10-25T18:23:36.975Z,6.80
2022-10-25T18:26:04.558Z,6.55
2022-10-25T18:28:33.032Z,7.07
2022-10-25T18:31:07.159Z,7.20
2022-10-25T18:33:35.165Z,6.45
2022-10-25T18:36:07.345Z,6.93
2022-10-25T18:38:34.165Z,7.68
2022-10-25T18:41:04.892Z,6.60
2022-10-25T18:43:31.471Z,7.15
2022-10-25T18:45:58.422Z,7.57
2022-10-25T18:48:26.116Z,6.55
2022-10-25T18:50:52.930Z,6.63
2022-10-25T18:53:20.099Z,6.93
2022-10-25T18:55:48.408Z,6.55
2022-10-25T18:58:15.195Z,6.53
2022-10-25T19:00:43.590Z,6.95
2022-10-25T19:03:14.834Z,9.48
2022-10-25T19:05:41.754Z,9.68
2022-10-25T19:08:10.145Z,9.13
2022-10-25T19:10:40.784Z,9.68
2022-10-25T19:13:09.311Z,7.97
2022-10-25T19:15:35.928Z,7.20
2022-10-25T19:18:02.480Z,7.93
2022-10-25T19:20:29.063Z,8.95
2022-10-25T19:22:58.543Z,7.78
2022-10-25T19:25:29.507Z,7.90
2022-10-25T19:27:56.763Z,6.50
2022-10-25T19:30:23.963Z,6.45
2022-10-25T19:32:51.059Z,5.82
2022-10-25T19:35:18.673Z,4.88
2022-10-25T19:37:45.411Z,5.60
2022-10-25T19:40:12.555Z,5.82
2022-10-25T19:42:39.159Z,6.05
2022-10-25T19:45:06.133Z,4.97
2022-10-25T19:47:35.716Z,5.93
2022-10-25T19:50:05.384Z,4.90
2022-10-25T19:52:35.090Z,6.35
2022-10-25T19:57:34.578Z,4.80
2022-10-25T20:00:01.716Z,6.00
2022-10-25T20:02:28.362Z,6.03
2022-10-25T20:04:55.036Z,5.50
2022-10-25T20:07:21.631Z,5.60
2022-10-25T20:09:48.215Z,6.28
2022-10-25T20:12:14.827Z,6.35
2022-10-25T20:14:42.705Z,5.90
2022-10-25T20:17:09.591Z,6.30
2022-10-25T20:19:36.159Z,5.63
2022-10-25T20:22:04.416Z,4.82
2022-10-25T20:24:31.045Z,4.72
2022-10-25T20:26:59.912Z,5.10
2022-10-25T20:29:27.144Z,4.55
2022-10-25T20:31:53.811Z,5.18
2022-10-25T20:34:20.805Z,4.53
2022-10-25T20:36:47.828Z,5.05
2022-10-25T20:39:14.885Z,5.00
2022-10-25T20:41:41.871Z,4.72
2022-10-25T20:44:09.027Z,4.45
2022-10-25T20:46:35.637Z,4.20
2022-10-25T20:49:03.347Z,4.28
2022-10-25T20:51:30.145Z,4.00
2022-10-25T20:53:56.959Z,4.32
2022-10-25T20:56:23.644Z,4.57
2022-10-25T20:58:50.589Z,4.05
2022-10-25T21:01:17.657Z,4.53
2022-10-25T21:03:44.296Z,4.60
2022-10-25T21:06:12.596Z,4.20
2022-10-25T21:08:39.367Z,4.38
2022-10-25T21:11:09.259Z,4.38
2022-10-25T21:13:37.059Z,4.38
2022-10-25T21:16:11.571Z,4.05
2022-10-25T21:18:38.470Z,4.47
2022-10-25T21:21:08.021Z,4.85
2022-10-25T21:23:35.068Z,4.88
2022-10-25T21:26:04.382Z,4.72
2022-10-25T21:28:37.236Z,4.53
2022-10-25T21:31:05.879Z,5.07
2022-10-25T21:33:32.693Z,5.60
2022-10-25T21:36:07.921Z,5.43
2022-10-25T21:38:34.844Z,5.13
2022-10-25T21:41:06.274Z,5.53
2022-10-25T21:43:32.928Z,5.10
2022-10-25T21:45:59.580Z,5.75
2022-10-25T21:48:26.630Z,5.00
2022-10-25T21:50:55.085Z,5.40
2022-10-25T21:53:22.441Z,5.00
2022-10-25T21:55:49.032Z,4.43
2022-10-25T21:58:15.575Z,4.63
2022-10-25T22:00:42.769Z,4.60
2022-10-25T22:03:09.467Z,4.65
2022-10-25T22:05:41.727Z,3.67
2022-10-25T22:08:08.278Z,4.28
2022-10-25T22:10:34.823Z,3.63
2022-10-25T22:13:01.379Z,4.00
2022-10-25T22:15:28.002Z,3.55
2022-10-25T22:17:54.557Z,3.92
2022-10-25T22:20:21.149Z,3.63
2022-10-25T22:22:47.961Z,4.25
2022-10-25T22:25:14.724Z,4.68
2022-10-25T22:27:41.325Z,4.18
2022-10-25T22:30:08.576Z,4.50
2022-10-25T22:32:35.187Z,4.70
2022-10-25T22:35:01.763Z,4.60
2022-10-25T22:37:28.320Z,4.60
2022-10-25T22:39:54.876Z,4.70
2022-10-25T22:42:21.446Z,4.82
2022-10-25T22:44:48.009Z,4.45
2022-10-25T22:47:14.567Z,4.53
2022-10-25T22:49:41.135Z,4.18
2022-10-25T22:52:07.683Z,4.63
2022-10-25T22:54:34.242Z,4.40
2022-10-25T22:57:00.775Z,4.60
2022-10-25T22:59:27.414Z,4.90
2022-10-25T23:01:54.028Z,4.60
2022-10-25T23:04:20.683Z,5.05
2022-10-25T23:06:47.328Z,4.88
2022-10-25T23:09:13.912Z,4.97
2022-10-25T23:11:41.334Z,5.20
2022-10-25T23:14:13.297Z,4.85
2022-10-25T23:16:43.253Z,4.25
2022-10-25T23:19:09.799Z,4.72
2022-10-25T23:21:36.483Z,4.43
2022-10-25T23:24:03.547Z,4.55
2022-10-25T23:26:32.505Z,4.53
2022-10-25T23:29:00.298Z,4.65
2022-10-25T23:31:27.689Z,4.78
2022-10-25T23:33:56.308Z,4.80
2022-10-25T23:36:25.217Z,4.78
2022-10-25T23:38:53.160Z,5.18
2022-10-25T23:41:20.900Z,4.97
2022-10-25T23:43:47.764Z,4.63
2022-10-25T23:46:14.383Z,4.80
2022-10-25T23:48:40.990Z,4.60
2022-10-25T23:51:12.717Z,4.85
2022-10-25T23:56:08.943Z,4.43
2022-10-25T23:58:35.655Z,4.75
